sensor_id;sensor_type;location;lat;lon;timestamp;P1;durP1;ratioP1;P2;durP2;ratioP2
35677;SDS011;21791;42.828;74.582;2023-02-22T00:01:14;5.32;;;1.27;;
35677;SDS011;21791;42.828;74.582;2023-02-22T00:04:04;2.05;;;0.95;;
35677;SDS011;21791;42.828;74.582;2023-02-22T00:06:31;2.25;;;0.52;;
35677;SDS011;21791;42.828;74.582;2023-02-22T00:08:58;5.18;;;0.68;;
35677;SDS011;21791;42.828;74.582;2023-02-22T00:11:27;1.60;;;0.55;;
35677;SDS011;21791;42.828;74.582;2023-02-22T00:13:53;1.67;;;0.60;;
35677;SDS011;21791;42.828;74.582;2023-02-22T00:16:23;2.03;;;1.10;;
35677;SDS011;21791;42.828;74.582;2023-02-22T00:18:51;5.00;;;1.15;;
35677;SDS011;21791;42.828;74.582;2023-02-22T00:21:17;8.93;;;1.48;;
35677;SDS011;21791;42.828;74.582;2023-02-22T00:23:45;4.18;;;1.48;;
35677;SDS011;21791;42.828;74.582;2023-02-22T00:26:13;3.38;;;1.05;;
35677;SDS011;21791;42.828;74.582;2023-02-22T00:28:46;2.05;;;1.08;;
35677;SDS011;21791;42.828;74.582;2023-02-22T00:31:14;3.38;;;1.20;;
35677;SDS011;21791;42.828;74.582;2023-02-22T00:33:41;3.45;;;1.05;;
35677;SDS011;21791;42.828;74.582;2023-02-22T00:36:09;5.15;;;1.80;;
35677;SDS011;21791;42.828;74.582;2023-02-22T00:38:36;2.72;;;1.35;;
35677;SDS011;21791;42.828;74.582;2023-02-22T00:41:03;7.75;;;1.58;;
35677;SDS011;21791;42.828;74.582;2023-02-22T00:43:30;1.02;;;0.70;;
35677;SDS011;21791;42.828;74.582;2023-02-22T00:45:56;4.68;;;1.08;;
35677;SDS011;21791;42.828;74.582;2023-02-22T00:48:23;1.67;;;0.70;;
35677;SDS011;21791;42.828;74.582;2023-02-22T00:50:49;1.02;;;0.50;;
35677;SDS011;21791;42.828;74.582;2023-02-22T00:53:20;1.23;;;0.60;;
35677;SDS011;21791;42.828;74.582;2023-02-22T00:55:50;6.15;;;0.90;;
35677;SDS011;21791;42.828;74.582;2023-02-22T00:58:18;6.05;;;1.10;;
35677;SDS011;21791;42.828;74.582;2023-02-22T01:00:45;3.85;;;0.88;;
35677;SDS011;21791;42.828;74.582;2023-02-22T01:03:13;8.10;;;1.30;;
35677;SDS011;21791;42.828;74.582;2023-02-22T01:05:42;3.90;;;0.70;;
35677;SDS011;21791;42.828;74.582;2023-02-22T01:08:09;1.98;;;0.88;;
35677;SDS011;21791;42.828;74.582;2023-02-22T01:10:38;2.58;;;0.63;;
35677;SDS011;21791;42.828;74.582;2023-02-22T01:13:04;0.73;;;0.50;;
35677;SDS011;21791;42.828;74.582;2023-02-22T01:15:37;3.95;;;0.75;;
35677;SDS011;21791;42.828;74.582;2023-02-22T01:18:05;2.20;;;0.80;;
35677;SDS011;21791;42.828;74.582;2023-02-22T01:20:33;2.22;;;0.77;;
35677;SDS011;21791;42.828;74.582;2023-02-22T01:23:00;16.20;;;2.53;;
35677;SDS011;21791;42.828;74.582;2023-02-22T01:25:29;8.90;;;1.60;;
35677;SDS011;21791;42.828;74.582;2023-02-22T01:27:56;21.58;;;2.80;;
35677;SDS011;21791;42.828;74.582;2023-02-22T01:30:25;13.55;;;1.80;;
35677;SDS011;21791;42.828;74.582;2023-02-22T01:32:57;17.80;;;1.92;;
35677;SDS011;21791;42.828;74.582;2023-02-22T01:35:30;16.50;;;2.80;;
35677;SDS011;21791;42.828;74.582;2023-02-22T01:37:58;10.32;;;1.80;;
35677;SDS011;21791;42.828;74.582;2023-02-22T01:40:30;30.83;;;3.20;;
35677;SDS011;21791;42.828;74.582;2023-02-22T01:43:00;13.35;;;2.83;;
35677;SDS011;21791;42.828;74.582;2023-02-22T01:45:44;14.38;;;2.83;;
35677;SDS011;21791;42.828;74.582;2023-02-22T01:48:14;14.15;;;2.53;;
35677;SDS011;21791;42.828;74.582;2023-02-22T01:50:47;47.10;;;4.82;;
35677;SDS011;21791;42.828;74.582;2023-02-22T01:53:19;44.72;;;5.72;;
35677;SDS011;21791;42.828;74.582;2023-02-22T01:55:52;28.90;;;3.80;;
35677;SDS011;21791;42.828;74.582;2023-02-22T01:58:21;23.35;;;4.25;;
35677;SDS011;21791;42.828;74.582;2023-02-22T02:00:50;39.33;;;5.25;;
35677;SDS011;21791;42.828;74.582;2023-02-22T02:03:21;17.35;;;3.85;;
35677;SDS011;21791;42.828;74.582;2023-02-22T02:05:51;13.23;;;2.60;;
35677;SDS011;21791;42.828;74.582;2023-02-22T02:10:55;9.27;;;2.47;;
35677;SDS011;21791;42.828;74.582;2023-02-22T02:13:23;11.25;;;2.65;;
35677;SDS011;21791;42.828;74.582;2023-02-22T02:15:52;16.85;;;3.45;;
35677;SDS011;21791;42.828;74.582;2023-02-22T02:18:21;21.52;;;4.47;;
35677;SDS011;21791;42.828;74.582;2023-02-22T02:21:02;17.23;;;3.63;;
35677;SDS011;21791;42.828;74.582;2023-02-22T02:27:10;10.45;;;2.83;;
35677;SDS011;21791;42.828;74.582;2023-02-22T02:35:17;7.00;;;2.90;;
35677;SDS011;21791;42.828;74.582;2023-02-22T02:41:06;12.63;;;3.15;;
35677;SDS011;21791;42.828;74.582;2023-02-22T02:43:37;16.58;;;3.85;;
35677;SDS011;21791;42.828;74.582;2023-02-22T02:46:43;8.57;;;2.83;;
35677;SDS011;21791;42.828;74.582;2023-02-22T02:49:33;12.45;;;3.30;;
35677;SDS011;21791;42.828;74.582;2023-02-22T02:52:11;7.50;;;2.95;;
35677;SDS011;21791;42.828;74.582;2023-02-22T02:54:40;14.40;;;2.53;;
35677;SDS011;21791;42.828;74.582;2023-02-22T02:57:09;9.38;;;2.80;;
35677;SDS011;21791;42.828;74.582;2023-02-22T02:59:36;15.50;;;3.40;;
35677;SDS011;21791;42.828;74.582;2023-02-22T03:02:08;6.03;;;1.90;;
35677;SDS011;21791;42.828;74.582;2023-02-22T03:04:47;11.52;;;2.45;;
35677;SDS011;21791;42.828;74.582;2023-02-22T03:15:51;6.85;;;1.80;;
35677;SDS011;21791;42.828;74.582;2023-02-22T03:18:29;13.25;;;2.55;;
35677;SDS011;21791;42.828;74.582;2023-02-22T03:21:23;11.90;;;2.70;;
35677;SDS011;21791;42.828;74.582;2023-02-22T03:24:00;12.05;;;3.20;;
35677;SDS011;21791;42.828;74.582;2023-02-22T03:26:48;6.05;;;1.50;;
35677;SDS011;21791;42.828;74.582;2023-02-22T03:29:20;14.18;;;3.05;;
35677;SDS011;21791;42.828;74.582;2023-02-22T03:31:53;3.67;;;1.90;;
35677;SDS011;21791;42.828;74.582;2023-02-22T03:37:32;5.47;;;2.50;;
35677;SDS011;21791;42.828;74.582;2023-02-22T03:40:02;9.23;;;2.83;;
35677;SDS011;21791;42.828;74.582;2023-02-22T03:42:38;7.45;;;3.72;;
35677;SDS011;21791;42.828;74.582;2023-02-22T03:45:12;14.20;;;4.30;;
35677;SDS011;21791;42.828;74.582;2023-02-22T03:47:48;7.10;;;3.22;;
35677;SDS011;21791;42.828;74.582;2023-02-22T03:50:20;17.15;;;5.20;;
35677;SDS011;21791;42.828;74.582;2023-02-22T03:52:54;10.93;;;4.30;;
35677;SDS011;21791;42.828;74.582;2023-02-22T03:55:24;26.88;;;7.53;;
35677;SDS011;21791;42.828;74.582;2023-02-22T03:57:54;24.08;;;9.65;;
35677;SDS011;21791;42.828;74.582;2023-02-22T04:00:27;13.93;;;5.78;;
35677;SDS011;21791;42.828;74.582;2023-02-22T04:02:55;9.52;;;5.40;;
35677;SDS011;21791;42.828;74.582;2023-02-22T04:05:22;13.23;;;4.97;;
35677;SDS011;21791;42.828;74.582;2023-02-22T04:07:52;15.95;;;6.03;;
35677;SDS011;21791;42.828;74.582;2023-02-22T04:10:20;8.52;;;5.15;;
35677;SDS011;21791;42.828;74.582;2023-02-22T04:12:47;11.48;;;4.57;;
35677;SDS011;21791;42.828;74.582;2023-02-22T04:15:16;9.45;;;4.00;;
35677;SDS011;21791;42.828;74.582;2023-02-22T04:17:45;14.15;;;4.88;;
35677;SDS011;21791;42.828;74.582;2023-02-22T04:20:11;23.10;;;5.40;;
35677;SDS011;21791;42.828;74.582;2023-02-22T04:22:39;14.90;;;4.72;;
35677;SDS011;21791;42.828;74.582;2023-02-22T04:25:05;14.98;;;5.38;;
35677;SDS011;21791;42.828;74.582;2023-02-22T04:27:32;20.15;;;4.85;;
35677;SDS011;21791;42.828;74.582;2023-02-22T04:29:59;17.02;;;5.00;;
35677;SDS011;21791;42.828;74.582;2023-02-22T04:32:25;11.40;;;4.60;;
35677;SDS011;21791;42.828;74.582;2023-02-22T04:34:52;7.25;;;2.80;;
35677;SDS011;21791;42.828;74.582;2023-02-22T04:37:18;7.40;;;2.22;;
35677;SDS011;21791;42.828;74.582;2023-02-22T04:39:45;10.65;;;3.17;;
35677;SDS011;21791;42.828;74.582;2023-02-22T04:42:11;9.70;;;3.42;;
35677;SDS011;21791;42.828;74.582;2023-02-22T04:44:38;12.30;;;4.13;;
35677;SDS011;21791;42.828;74.582;2023-02-22T04:47:04;17.48;;;4.68;;
35677;SDS011;21791;42.828;74.582;2023-02-22T04:49:31;15.18;;;3.60;;
35677;SDS011;21791;42.828;74.582;2023-02-22T04:51:57;22.15;;;5.72;;
35677;SDS011;21791;42.828;74.582;2023-02-22T04:54:24;13.32;;;4.20;;
35677;SDS011;21791;42.828;74.582;2023-02-22T04:56:50;15.30;;;4.53;;
35677;SDS011;21791;42.828;74.582;2023-02-22T04:59:17;13.38;;;4.70;;
35677;SDS011;21791;42.828;74.582;2023-02-22T05:01:44;13.48;;;3.78;;
35677;SDS011;21791;42.828;74.582;2023-02-22T05:04:10;12.45;;;3.50;;
35677;SDS011;21791;42.828;74.582;2023-02-22T05:06:37;14.77;;;5.07;;
35677;SDS011;21791;42.828;74.582;2023-02-22T05:09:04;20.77;;;4.40;;
35677;SDS011;21791;42.828;74.582;2023-02-22T05:11:31;9.45;;;3.60;;
35677;SDS011;21791;42.828;74.582;2023-02-22T05:13:58;15.35;;;3.22;;
35677;SDS011;21791;42.828;74.582;2023-02-22T05:16:24;10.10;;;2.92;;
35677;SDS011;21791;42.828;74.582;2023-02-22T05:18:51;13.25;;;3.10;;
35677;SDS011;21791;42.828;74.582;2023-02-22T05:21:17;11.70;;;3.20;;
35677;SDS011;21791;42.828;74.582;2023-02-22T05:23:44;8.40;;;2.40;;
35677;SDS011;21791;42.828;74.582;2023-02-22T05:26:10;11.60;;;2.83;;
35677;SDS011;21791;42.828;74.582;2023-02-22T05:28:37;10.15;;;2.95;;
35677;SDS011;21791;42.828;74.582;2023-02-22T05:31:04;10.90;;;2.92;;
35677;SDS011;21791;42.828;74.582;2023-02-22T05:33:31;11.80;;;2.35;;
35677;SDS011;21791;42.828;74.582;2023-02-22T05:35:58;7.45;;;2.47;;
35677;SDS011;21791;42.828;74.582;2023-02-22T05:38:24;5.78;;;2.30;;
35677;SDS011;21791;42.828;74.582;2023-02-22T05:40:51;7.97;;;2.15;;
35677;SDS011;21791;42.828;74.582;2023-02-22T05:43:18;10.15;;;2.40;;
35677;SDS011;21791;42.828;74.582;2023-02-22T05:45:44;7.40;;;1.67;;
35677;SDS011;21791;42.828;74.582;2023-02-22T05:48:10;4.50;;;1.67;;
35677;SDS011;21791;42.828;74.582;2023-02-22T05:50:37;6.85;;;1.58;;
35677;SDS011;21791;42.828;74.582;2023-02-22T05:53:04;7.50;;;1.65;;
35677;SDS011;21791;42.828;74.582;2023-02-22T05:55:31;3.40;;;1.60;;
35677;SDS011;21791;42.828;74.582;2023-02-22T05:57:57;5.85;;;1.88;;
35677;SDS011;21791;42.828;74.582;2023-02-22T06:00:29;3.70;;;1.40;;
35677;SDS011;21791;42.828;74.582;2023-02-22T06:02:59;6.68;;;1.77;;
35677;SDS011;21791;42.828;74.582;2023-02-22T06:05:28;4.32;;;1.58;;
35677;SDS011;21791;42.828;74.582;2023-02-22T06:07:56;5.05;;;1.60;;
35677;SDS011;21791;42.828;74.582;2023-02-22T06:10:24;5.20;;;1.70;;
35677;SDS011;21791;42.828;74.582;2023-02-22T06:12:52;5.22;;;2.60;;
35677;SDS011;21791;42.828;74.582;2023-02-22T06:15:21;4.45;;;2.08;;
35677;SDS011;21791;42.828;74.582;2023-02-22T06:17:49;4.70;;;2.00;;
35677;SDS011;21791;42.828;74.582;2023-02-22T06:20:17;7.82;;;2.30;;
35677;SDS011;21791;42.828;74.582;2023-02-22T06:22:47;4.60;;;1.88;;
35677;SDS011;21791;42.828;74.582;2023-02-22T06:25:16;7.22;;;2.45;;
35677;SDS011;21791;42.828;74.582;2023-02-22T06:27:43;5.57;;;2.17;;
35677;SDS011;21791;42.828;74.582;2023-02-22T06:30:10;2.35;;;1.35;;
35677;SDS011;21791;42.828;74.582;2023-02-22T06:32:38;5.60;;;1.80;;
35677;SDS011;21791;42.828;74.582;2023-02-22T06:35:04;3.20;;;1.10;;
35677;SDS011;21791;42.828;74.582;2023-02-22T06:37:31;4.13;;;0.85;;
35677;SDS011;21791;42.828;74.582;2023-02-22T06:39:58;5.05;;;1.55;;
35677;SDS011;21791;42.828;74.582;2023-02-22T06:42:25;1.55;;;1.10;;
35677;SDS011;21791;42.828;74.582;2023-02-22T06:44:51;7.53;;;1.45;;
35677;SDS011;21791;42.828;74.582;2023-02-22T06:47:18;3.45;;;1.30;;
35677;SDS011;21791;42.828;74.582;2023-02-22T06:49:44;3.78;;;1.45;;
35677;SDS011;21791;42.828;74.582;2023-02-22T06:52:16;5.18;;;1.80;;
35677;SDS011;21791;42.828;74.582;2023-02-22T06:54:42;5.80;;;1.50;;
35677;SDS011;21791;42.828;74.582;2023-02-22T06:57:09;2.47;;;1.30;;
35677;SDS011;21791;42.828;74.582;2023-02-22T06:59:36;6.93;;;1.50;;
35677;SDS011;21791;42.828;74.582;2023-02-22T07:02:02;4.13;;;1.17;;
35677;SDS011;21791;42.828;74.582;2023-02-22T07:04:29;2.67;;;1.20;;
35677;SDS011;21791;42.828;74.582;2023-02-22T07:06:55;3.45;;;1.10;;
35677;SDS011;21791;42.828;74.582;2023-02-22T07:09:22;5.22;;;1.30;;
35677;SDS011;21791;42.828;74.582;2023-02-22T07:11:48;8.13;;;1.38;;
35677;SDS011;21791;42.828;74.582;2023-02-22T07:14:15;4.40;;;1.33;;
35677;SDS011;21791;42.828;74.582;2023-02-22T07:16:42;6.28;;;1.75;;
35677;SDS011;21791;42.828;74.582;2023-02-22T07:19:08;3.65;;;1.40;;
35677;SDS011;21791;42.828;74.582;2023-02-22T07:21:35;5.10;;;1.35;;
35677;SDS011;21791;42.828;74.582;2023-02-22T07:24:01;5.55;;;1.88;;
35677;SDS011;21791;42.828;74.582;2023-02-22T07:26:28;10.00;;;1.80;;
35677;SDS011;21791;42.828;74.582;2023-02-22T07:28:54;5.35;;;1.80;;
35677;SDS011;21791;42.828;74.582;2023-02-22T07:31:21;13.02;;;2.78;;
35677;SDS011;21791;42.828;74.582;2023-02-22T07:33:48;2.80;;;1.40;;
35677;SDS011;21791;42.828;74.582;2023-02-22T07:36:15;7.05;;;1.63;;
35677;SDS011;21791;42.828;74.582;2023-02-22T07:38:43;7.32;;;1.80;;
35677;SDS011;21791;42.828;74.582;2023-02-22T07:41:09;4.45;;;1.90;;
35677;SDS011;21791;42.828;74.582;2023-02-22T07:43:37;4.57;;;1.67;;
35677;SDS011;21791;42.828;74.582;2023-02-22T07:46:04;5.18;;;1.75;;
35677;SDS011;21791;42.828;74.582;2023-02-22T07:48:30;2.10;;;1.38;;
35677;SDS011;21791;42.828;74.582;2023-02-22T07:50:57;5.82;;;1.70;;
35677;SDS011;21791;42.828;74.582;2023-02-22T07:53:28;2.85;;;1.20;;
35677;SDS011;21791;42.828;74.582;2023-02-22T07:55:56;4.60;;;1.30;;
35677;SDS011;21791;42.828;74.582;2023-02-22T07:58:24;6.63;;;1.58;;
35677;SDS011;21791;42.828;74.582;2023-02-22T08:00:52;5.38;;;1.75;;
35677;SDS011;21791;42.828;74.582;2023-02-22T08:03:20;7.35;;;1.70;;
35677;SDS011;21791;42.828;74.582;2023-02-22T08:05:50;5.50;;;1.42;;
35677;SDS011;21791;42.828;74.582;2023-02-22T08:08:17;3.92;;;1.75;;
35677;SDS011;21791;42.828;74.582;2023-02-22T08:10:45;4.05;;;2.42;;
35677;SDS011;21791;42.828;74.582;2023-02-22T08:13:12;5.10;;;1.60;;
35677;SDS011;21791;42.828;74.582;2023-02-22T08:15:39;4.20;;;1.50;;
35677;SDS011;21791;42.828;74.582;2023-02-22T08:18:13;5.20;;;2.00;;
35677;SDS011;21791;42.828;74.582;2023-02-22T08:20:41;5.80;;;1.63;;
35677;SDS011;21791;42.828;74.582;2023-02-22T08:23:09;7.20;;;2.20;;
35677;SDS011;21791;42.828;74.582;2023-02-22T08:25:37;2.85;;;1.30;;
35677;SDS011;21791;42.828;74.582;2023-02-22T08:28:05;3.58;;;1.10;;
35677;SDS011;21791;42.828;74.582;2023-02-22T08:30:34;3.65;;;1.05;;
35677;SDS011;21791;42.828;74.582;2023-02-22T08:33:02;5.20;;;1.73;;
35677;SDS011;21791;42.828;74.582;2023-02-22T08:35:29;5.28;;;1.13;;
35677;SDS011;21791;42.828;74.582;2023-02-22T08:38:01;1.70;;;1.20;;
35677;SDS011;21791;42.828;74.582;2023-02-22T08:40:30;2.42;;;1.02;;
35677;SDS011;21791;42.828;74.582;2023-02-22T08:42:58;6.25;;;1.08;;
35677;SDS011;21791;42.828;74.582;2023-02-22T08:45:26;5.25;;;1.55;;
35677;SDS011;21791;42.828;74.582;2023-02-22T08:47:53;4.90;;;1.30;;
35677;SDS011;21791;42.828;74.582;2023-02-22T08:50:23;7.35;;;1.90;;
35677;SDS011;21791;42.828;74.582;2023-02-22T08:52:56;6.00;;;2.17;;
35677;SDS011;21791;42.828;74.582;2023-02-22T08:55:25;8.25;;;2.00;;
35677;SDS011;21791;42.828;74.582;2023-02-22T08:57:52;6.03;;;2.25;;
35677;SDS011;21791;42.828;74.582;2023-02-22T09:00:20;5.32;;;1.70;;
35677;SDS011;21791;42.828;74.582;2023-02-22T09:02:50;5.05;;;1.88;;
35677;SDS011;21791;42.828;74.582;2023-02-22T09:05:17;8.85;;;2.58;;
35677;SDS011;21791;42.828;74.582;2023-02-22T09:07:44;10.05;;;2.25;;
35677;SDS011;21791;42.828;74.582;2023-02-22T09:10:12;10.48;;;2.63;;
35677;SDS011;21791;42.828;74.582;2023-02-22T09:12:40;9.48;;;2.15;;
35677;SDS011;21791;42.828;74.582;2023-02-22T09:15:07;3.17;;;1.50;;
35677;SDS011;21791;42.828;74.582;2023-02-22T09:17:34;6.95;;;1.92;;
35677;SDS011;21791;42.828;74.582;2023-02-22T09:20:05;11.88;;;2.08;;
35677;SDS011;21791;42.828;74.582;2023-02-22T09:22:36;8.52;;;1.55;;
35677;SDS011;21791;42.828;74.582;2023-02-22T09:25:04;6.13;;;1.83;;
35677;SDS011;21791;42.828;74.582;2023-02-22T09:27:32;5.38;;;2.00;;
35677;SDS011;21791;42.828;74.582;2023-02-22T09:29:58;5.10;;;1.83;;
35677;SDS011;21791;42.828;74.582;2023-02-22T09:32:25;6.88;;;1.67;;
35677;SDS011;21791;42.828;74.582;2023-02-22T09:34:52;4.45;;;1.30;;
35677;SDS011;21791;42.828;74.582;2023-02-22T09:37:20;2.97;;;1.60;;
35677;SDS011;21791;42.828;74.582;2023-02-22T09:39:47;3.45;;;1.65;;
35677;SDS011;21791;42.828;74.582;2023-02-22T09:44:51;5.05;;;1.77;;
35677;SDS011;21791;42.828;74.582;2023-02-22T09:47:44;5.85;;;1.35;;
35677;SDS011;21791;42.828;74.582;2023-02-22T09:50:20;5.72;;;1.60;;
35677;SDS011;21791;42.828;74.582;2023-02-22T10:01:14;17.48;;;2.25;;
35677;SDS011;21791;42.828;74.582;2023-02-22T10:03:47;9.07;;;2.25;;
35677;SDS011;21791;42.828;74.582;2023-02-22T10:06:18;4.53;;;1.83;;
35677;SDS011;21791;42.828;74.582;2023-02-22T10:08:47;8.25;;;2.20;;
35677;SDS011;21791;42.828;74.582;2023-02-22T10:11:27;8.27;;;2.00;;
35677;SDS011;21791;42.828;74.582;2023-02-22T10:27:47;5.88;;;2.53;;
35677;SDS011;21791;42.828;74.582;2023-02-22T10:33:09;7.38;;;2.20;;
35677;SDS011;21791;42.828;74.582;2023-02-22T10:35:41;9.00;;;2.50;;
35677;SDS011;21791;42.828;74.582;2023-02-22T10:40:39;4.55;;;2.15;;
35677;SDS011;21791;42.828;74.582;2023-02-22T10:43:10;6.68;;;2.03;;
35677;SDS011;21791;42.828;74.582;2023-02-22T10:45:38;8.40;;;2.30;;
35677;SDS011;21791;42.828;74.582;2023-02-22T10:48:06;8.10;;;2.15;;
35677;SDS011;21791;42.828;74.582;2023-02-22T10:50:39;6.50;;;2.28;;
35677;SDS011;21791;42.828;74.582;2023-02-22T10:53:08;10.73;;;2.60;;
35677;SDS011;21791;42.828;74.582;2023-02-22T10:55:35;7.90;;;2.85;;
35677;SDS011;21791;42.828;74.582;2023-02-22T10:58:38;9.00;;;3.10;;
35677;SDS011;21791;42.828;74.582;2023-02-22T11:04:09;9.02;;;2.67;;
35677;SDS011;21791;42.828;74.582;2023-02-22T11:06:37;15.70;;;3.22;;
35677;SDS011;21791;42.828;74.582;2023-02-22T11:09:13;15.35;;;2.90;;
35677;SDS011;21791;42.828;74.582;2023-02-22T11:11:44;11.68;;;2.75;;
35677;SDS011;21791;42.828;74.582;2023-02-22T11:14:44;8.52;;;2.50;;
35677;SDS011;21791;42.828;74.582;2023-02-22T11:17:05;6.78;;;2.50;;
35677;SDS011;21791;42.828;74.582;2023-02-22T11:19:33;13.02;;;3.70;;
35677;SDS011;21791;42.828;74.582;2023-02-22T11:22:09;14.57;;;3.40;;
35677;SDS011;21791;42.828;74.582;2023-02-22T11:24:45;12.57;;;3.28;;
35677;SDS011;21791;42.828;74.582;2023-02-22T11:30:45;8.27;;;3.00;;
35677;SDS011;21791;42.828;74.582;2023-02-22T11:32:55;4.70;;;2.72;;
35677;SDS011;21791;42.828;74.582;2023-02-22T11:36:05;11.10;;;3.78;;
35677;SDS011;21791;42.828;74.582;2023-02-22T11:38:38;9.68;;;3.15;;
35677;SDS011;21791;42.828;74.582;2023-02-22T11:41:19;15.00;;;4.65;;
35677;SDS011;21791;42.828;74.582;2023-02-22T11:43:51;17.23;;;5.65;;
35677;SDS011;21791;42.828;74.582;2023-02-22T11:46:22;36.55;;;7.60;;
35677;SDS011;21791;42.828;74.582;2023-02-22T11:51:31;37.70;;;9.93;;
35677;SDS011;21791;42.828;74.582;2023-02-22T11:56:30;52.55;;;11.70;;
35677;SDS011;21791;42.828;74.582;2023-02-22T12:01:49;40.30;;;11.15;;
35677;SDS011;21791;42.828;74.582;2023-02-22T12:04:38;59.47;;;15.65;;
35677;SDS011;21791;42.828;74.582;2023-02-22T12:10:24;42.45;;;13.20;;
35677;SDS011;21791;42.828;74.582;2023-02-22T12:21:37;16.17;;;9.93;;
35677;SDS011;21791;42.828;74.582;2023-02-22T12:24:09;14.15;;;8.13;;
35677;SDS011;21791;42.828;74.582;2023-02-22T12:26:53;15.55;;;8.23;;
35677;SDS011;21791;42.828;74.582;2023-02-22T12:35:19;17.60;;;9.35;;
35677;SDS011;21791;42.828;74.582;2023-02-22T12:44:00;22.92;;;12.45;;
35677;SDS011;21791;42.828;74.582;2023-02-22T12:46:31;20.70;;;12.07;;
35677;SDS011;21791;42.828;74.582;2023-02-22T12:52:31;36.05;;;19.05;;
35677;SDS011;21791;42.828;74.582;2023-02-22T12:55:17;31.90;;;18.27;;
35677;SDS011;21791;42.828;74.582;2023-02-22T12:57:47;38.92;;;20.25;;
35677;SDS011;21791;42.828;74.582;2023-02-22T13:05:37;30.42;;;13.52;;
35677;SDS011;21791;42.828;74.582;2023-02-22T13:08:09;27.85;;;14.32;;
35677;SDS011;21791;42.828;74.582;2023-02-22T13:11:00;21.95;;;13.18;;
35677;SDS011;21791;42.828;74.582;2023-02-22T13:13:48;27.13;;;13.27;;
35677;SDS011;21791;42.828;74.582;2023-02-22T13:21:51;24.17;;;15.35;;
35677;SDS011;21791;42.828;74.582;2023-02-22T13:24:52;31.58;;;16.83;;
35677;SDS011;21791;42.828;74.582;2023-02-22T13:27:42;36.35;;;18.30;;
35677;SDS011;21791;42.828;74.582;2023-02-22T13:44:00;29.95;;;15.00;;
35677;SDS011;21791;42.828;74.582;2023-02-22T13:49:33;25.92;;;16.88;;
35677;SDS011;21791;42.828;74.582;2023-02-22T13:52:20;30.67;;;17.25;;
35677;SDS011;21791;42.828;74.582;2023-02-22T13:54:55;30.17;;;19.55;;
35677;SDS011;21791;42.828;74.582;2023-02-22T13:57:27;32.60;;;19.77;;
35677;SDS011;21791;42.828;74.582;2023-02-22T14:00:17;30.38;;;18.38;;
35677;SDS011;21791;42.828;74.582;2023-02-22T14:02:57;28.08;;;17.73;;
35677;SDS011;21791;42.828;74.582;2023-02-22T14:13:22;31.52;;;19.45;;
35677;SDS011;21791;42.828;74.582;2023-02-22T14:18:37;26.20;;;17.00;;
35677;SDS011;21791;42.828;74.582;2023-02-22T14:21:34;23.25;;;14.95;;
35677;SDS011;21791;42.828;74.582;2023-02-22T14:24:08;22.17;;;14.48;;
35677;SDS011;21791;42.828;74.582;2023-02-22T14:26:39;21.80;;;13.18;;
35677;SDS011;21791;42.828;74.582;2023-02-22T14:29:17;20.85;;;12.35;;
35677;SDS011;21791;42.828;74.582;2023-02-22T14:37:18;22.05;;;12.25;;
35677;SDS011;21791;42.828;74.582;2023-02-22T14:40:05;19.10;;;12.13;;
35677;SDS011;21791;42.828;74.582;2023-02-22T14:45:23;26.95;;;17.40;;
35677;SDS011;21791;42.828;74.582;2023-02-22T14:47:55;31.55;;;18.42;;
35677;SDS011;21791;42.828;74.582;2023-02-22T14:50:46;26.30;;;16.48;;
35677;SDS011;21791;42.828;74.582;2023-02-22T14:56:00;28.38;;;16.73;;
35677;SDS011;21791;42.828;74.582;2023-02-22T15:00:58;25.38;;;15.55;;
35677;SDS011;21791;42.828;74.582;2023-02-22T15:03:40;25.70;;;16.02;;
35677;SDS011;21791;42.828;74.582;2023-02-22T15:06:17;30.70;;;18.75;;
35677;SDS011;21791;42.828;74.582;2023-02-22T15:08:47;27.95;;;16.83;;
35677;SDS011;21791;42.828;74.582;2023-02-22T15:11:30;41.03;;;20.25;;
35677;SDS011;21791;42.828;74.582;2023-02-22T15:13:57;44.00;;;24.70;;
35677;SDS011;21791;42.828;74.582;2023-02-22T15:16:28;40.33;;;22.65;;
35677;SDS011;21791;42.828;74.582;2023-02-22T15:18:59;38.70;;;20.77;;
35677;SDS011;21791;42.828;74.582;2023-02-22T15:21:32;35.30;;;19.80;;
35677;SDS011;21791;42.828;74.582;2023-02-22T15:24:01;34.20;;;20.63;;
35677;SDS011;21791;42.828;74.582;2023-02-22T15:26:40;35.40;;;20.17;;
35677;SDS011;21791;42.828;74.582;2023-02-22T15:29:14;33.05;;;19.30;;
35677;SDS011;21791;42.828;74.582;2023-02-22T15:31:50;36.70;;;18.55;;
35677;SDS011;21791;42.828;74.582;2023-02-22T15:34:23;30.48;;;18.90;;
35677;SDS011;21791;42.828;74.582;2023-02-22T15:36:54;30.73;;;18.45;;
35677;SDS011;21791;42.828;74.582;2023-02-22T15:39:29;32.00;;;18.83;;
35677;SDS011;21791;42.828;74.582;2023-02-22T15:42:09;44.38;;;21.38;;
35677;SDS011;21791;42.828;74.582;2023-02-22T15:44:44;41.22;;;23.35;;
35677;SDS011;21791;42.828;74.582;2023-02-22T15:47:19;43.55;;;22.95;;
35677;SDS011;21791;42.828;74.582;2023-02-22T15:52:48;37.38;;;21.67;;
35677;SDS011;21791;42.828;74.582;2023-02-22T15:55:17;36.85;;;22.63;;
35677;SDS011;21791;42.828;74.582;2023-02-22T15:57:49;41.53;;;23.15;;
35677;SDS011;21791;42.828;74.582;2023-02-22T16:00:20;37.55;;;23.13;;
35677;SDS011;21791;42.828;74.582;2023-02-22T16:02:58;35.60;;;21.73;;
35677;SDS011;21791;42.828;74.582;2023-02-22T16:05:29;37.45;;;23.98;;
35677;SDS011;21791;42.828;74.582;2023-02-22T16:08:21;39.58;;;24.40;;
35677;SDS011;21791;42.828;74.582;2023-02-22T16:10:51;33.10;;;21.52;;
35677;SDS011;21791;42.828;74.582;2023-02-22T16:13:29;42.15;;;23.98;;
35677;SDS011;21791;42.828;74.582;2023-02-22T16:16:02;39.55;;;23.58;;
35677;SDS011;21791;42.828;74.582;2023-02-22T16:18:35;39.58;;;25.48;;
35677;SDS011;21791;42.828;74.582;2023-02-22T16:21:05;49.22;;;27.75;;
35677;SDS011;21791;42.828;74.582;2023-02-22T16:23:50;43.13;;;24.83;;
35677;SDS011;21791;42.828;74.582;2023-02-22T16:28:59;32.75;;;19.45;;
35677;SDS011;21791;42.828;74.582;2023-02-22T16:31:31;35.15;;;20.80;;
35677;SDS011;21791;42.828;74.582;2023-02-22T16:34:00;39.20;;;19.27;;
35677;SDS011;21791;42.828;74.582;2023-02-22T16:36:43;41.28;;;21.48;;
35677;SDS011;21791;42.828;74.582;2023-02-22T16:39:21;32.22;;;18.42;;
35677;SDS011;21791;42.828;74.582;2023-02-22T16:41:59;30.63;;;16.15;;
35677;SDS011;21791;42.828;74.582;2023-02-22T16:44:28;25.60;;;14.65;;
35677;SDS011;21791;42.828;74.582;2023-02-22T16:46:58;24.80;;;12.50;;
35677;SDS011;21791;42.828;74.582;2023-02-22T16:49:25;23.00;;;11.82;;
35677;SDS011;21791;42.828;74.582;2023-02-22T16:51:58;24.80;;;11.75;;
35677;SDS011;21791;42.828;74.582;2023-02-22T16:54:27;20.60;;;9.95;;
35677;SDS011;21791;42.828;74.582;2023-02-22T16:57:06;26.02;;;10.00;;
35677;SDS011;21791;42.828;74.582;2023-02-22T16:59:39;24.90;;;9.20;;
35677;SDS011;21791;42.828;74.582;2023-02-22T17:02:08;22.92;;;8.50;;
35677;SDS011;21791;42.828;74.582;2023-02-22T17:04:38;19.10;;;7.85;;
35677;SDS011;21791;42.828;74.582;2023-02-22T17:07:05;17.90;;;7.40;;
35677;SDS011;21791;42.828;74.582;2023-02-22T17:09:33;19.02;;;7.32;;
35677;SDS011;21791;42.828;74.582;2023-02-22T17:12:00;14.40;;;6.20;;
35677;SDS011;21791;42.828;74.582;2023-02-22T17:14:29;17.95;;;5.32;;
35677;SDS011;21791;42.828;74.582;2023-02-22T17:16:58;16.80;;;6.13;;
35677;SDS011;21791;42.828;74.582;2023-02-22T17:19:24;15.00;;;5.38;;
35677;SDS011;21791;42.828;74.582;2023-02-22T17:21:51;16.17;;;4.60;;
35677;SDS011;21791;42.828;74.582;2023-02-22T17:24:19;14.40;;;5.15;;